Time;durP1;ratioP1;P1;durP2;ratioP2;P2;SDS_P1;SDS_P2;PMS_P1;PMS_P2;Temp;Humidity;BMP_temperature;BMP_pressure;BME280_temperature;BME280_humidity;BME280_pressure;Samples;Min_cycle;Max_cycle;Signal;HPM_P1;HPM_P2
2021/10/18 00:00:07;;;;;;;10.82;6.15;;;;;;;10.98;100.00;95577.59;5089102;28;20513;-74
2021/10/18 00:02:38;;;;;;;9.05;5.30;;;;;;;10.98;100.00;95582.03;5095032;28;20096;-73
2021/10/18 00:05:05;;;;;;;8.77;5.70;;;;;;;10.93;100.00;95576.66;5098068;28;20032;-74
2021/10/18 00:07:32;;;;;;;14.20;6.85;;;;;;;10.86;100.00;95580.13;5097822;28;20039;-74
2021/10/18 00:09:59;;;;;;;14.13;6.30;;;;;;;10.85;100.00;95573.31;5098019;28;20035;-74
2021/10/18 00:12:26;;;;;;;11.63;6.20;;;;;;;10.88;100.00;95567.69;5100422;28;20433;-75
2021/10/18 00:14:54;;;;;;;13.00;8.10;;;;;;;10.91;100.00;95576.88;5081301;28;20059;-74
2021/10/18 00:17:21;;;;;;;15.43;7.15;;;;;;;10.89;100.00;95573.69;5100648;28;20047;-74
2021/10/18 00:19:48;;;;;;;15.82;7.60;;;;;;;10.87;100.00;95576.50;5099050;28;20416;-75
2021/10/18 00:22:15;;;;;;;17.35;9.05;;;;;;;10.89;100.00;95569.28;5098837;28;20043;-75
2021/10/18 00:24:42;;;;;;;16.15;8.55;;;;;;;10.94;100.00;95570.44;5099231;28;20040;-74
2021/10/18 00:27:09;;;;;;;15.68;8.43;;;;;;;10.80;100.00;95564.56;5099845;28;20500;-74
2021/10/18 00:29:36;;;;;;;14.68;8.13;;;;;;;10.87;100.00;95571.28;5094716;28;20437;-75
2021/10/18 00:32:03;;;;;;;37.58;9.70;;;;;;;10.75;100.00;95567.81;5094385;28;20040;-75
2021/10/18 00:34:30;;;;;;;15.30;8.10;;;;;;;10.59;100.00;95569.13;5098549;28;20054;-75
2021/10/18 00:36:57;;;;;;;14.70;7.63;;;;;;;10.57;100.00;95565.97;5091768;28;20078;-74
2021/10/18 00:39:23;;;;;;;10.73;6.72;;;;;;;10.69;100.00;95568.66;5076347;28;20513;-74
2021/10/18 00:41:50;;;;;;;14.00;7.15;;;;;;;10.68;100.00;95572.28;5095754;28;20044;-74
2021/10/18 00:44:17;;;;;;;10.50;6.13;;;;;;;10.65;100.00;95564.88;5091957;28;20040;-74
2021/10/18 00:46:45;;;;;;;17.20;6.00;;;;;;;10.58;100.00;95566.75;5096862;28;20055;-74
2021/10/18 00:49:12;;;;;;;12.27;6.63;;;;;;;10.55;100.00;95567.16;5077893;28;20062;-74
2021/10/18 00:51:38;;;;;;;12.95;7.18;;;;;;;10.66;100.00;95574.28;5097498;28;20486;-74
2021/10/18 00:54:06;;;;;;;16.40;8.40;;;;;;;10.60;100.00;95557.69;5091236;28;20058;-74
2021/10/18 00:56:33;;;;;;;13.70;7.30;;;;;;;10.64;100.00;95560.66;5094359;28;20429;-74
2021/10/18 00:59:02;;;;;;;13.05;8.20;;;;;;;10.62;100.00;95563.47;5096718;28;20043;-75
2021/10/18 01:01:32;;;;;;;16.90;9.13;;;;;;;10.45;100.00;95552.81;5099344;28;20044;-75
2021/10/18 01:04:00;;;;;;;16.10;8.10;;;;;;;10.48;100.00;95552.38;5096682;28;20046;-75
2021/10/18 01:06:27;;;;;;;15.90;8.43;;;;;;;10.54;100.00;95565.59;5077201;28;20052;-74
2021/10/18 01:08:53;;;;;;;19.75;9.85;;;;;;;10.59;100.00;95563.13;5097173;28;20062;-74
2021/10/18 01:11:20;;;;;;;18.00;9.30;;;;;;;10.66;100.00;95558.66;5096745;28;20101;-74
2021/10/18 01:30:41;;;;;;;23.30;12.13;;;;;;;9.52;100.00;95558.50;5100878;27;20163;-74
2021/10/18 01:33:08;;;;;;;30.38;14.18;;;;;;;9.48;100.00;95544.31;5100584;28;20101;-74
2021/10/18 01:35:34;;;;;;;25.77;14.55;;;;;;;9.38;100.00;95527.38;5103514;28;20044;-74
2021/10/18 01:38:01;;;;;;;30.40;15.02;;;;;;;9.72;100.00;95543.63;5102263;28;20090;-74
2021/10/18 01:40:28;;;;;;;26.30;13.38;;;;;;;9.70;100.00;95514.41;5105087;28;20105;-74
2021/10/18 01:42:55;;;;;;;26.23;13.85;;;;;;;10.06;100.00;95543.44;5104923;28;20036;-74
2021/10/18 01:45:23;;;;;;;30.23;13.77;;;;;;;10.09;100.00;95549.00;5104388;28;20055;-74
2021/10/18 01:47:50;;;;;;;26.25;14.63;;;;;;;10.14;100.00;95554.38;5106325;28;20374;-75
2021/10/18 01:50:20;;;;;;;27.98;14.02;;;;;;;10.28;100.00;95547.31;5101771;28;20036;-74
2021/10/18 01:52:48;;;;;;;27.88;14.10;;;;;;;10.34;100.00;95550.91;5099979;28;20070;-75
2021/10/18 01:55:16;;;;;;;26.10;13.98;;;;;;;10.41;100.00;95541.22;5101930;28;20044;-74
2021/10/18 01:57:44;;;;;;;28.65;13.02;;;;;;;10.51;100.00;95551.97;5109739;28;20052;-74
2021/10/18 02:00:12;;;;;;;28.90;13.10;;;;;;;10.60;100.00;95556.91;5100678;28;20035;-75
2021/10/18 02:02:39;;;;;;;27.52;15.05;;;;;;;10.64;100.00;95550.25;5105951;28;20047;-74
2021/10/18 02:05:07;;;;;;;27.55;15.13;;;;;;;10.62;100.00;95560.09;5101605;28;20453;-74
2021/10/18 02:07:33;;;;;;;29.80;14.38;;;;;;;10.64;100.00;95556.28;5106379;28;20050;-74
2021/10/18 02:50:34;;;;;;;26.42;12.93;;;;;;;8.94;100.00;95567.84;5106736;27;20138;-74
2021/10/18 02:53:01;;;;;;;27.60;14.00;;;;;;;9.06;100.00;95551.66;5126965;27;20048;-74
2021/10/18 02:55:28;;;;;;;24.88;12.52;;;;;;;9.09;100.00;95543.44;5104299;27;20055;-74
2021/10/18 02:57:56;;;;;;;26.60;13.80;;;;;;;9.32;100.00;95546.38;5124513;27;20580;-74
2021/10/18 03:00:23;;;;;;;27.05;14.45;;;;;;;9.50;100.00;95555.31;5126962;27;20036;-74
2021/10/18 03:02:50;;;;;;;28.48;14.20;;;;;;;9.63;100.00;95544.84;5131216;27;20126;-74
2021/10/18 03:05:17;;;;;;;26.48;14.82;;;;;;;9.90;100.00;95561.16;5128730;27;20043;-74
2021/10/18 03:07:50;;;;;;;27.40;13.77;;;;;;;10.04;100.00;95561.06;5121200;27;20044;-74
2021/10/18 03:10:17;;;;;;;31.33;14.80;;;;;;;10.17;100.00;95568.00;5121460;27;20519;-74
2021/10/18 03:12:44;;;;;;;33.42;14.70;;;;;;;10.25;100.00;95557.34;5102977;27;20047;-74
2021/10/18 03:15:11;;;;;;;29.77;14.25;;;;;;;10.33;100.00;95562.31;5120500;27;20040;-75
2021/10/18 03:17:39;;;;;;;25.45;13.20;;;;;;;10.28;100.00;95536.06;5122310;27;20062;-74
2021/10/18 03:20:09;;;;;;;33.28;13.25;;;;;;;10.52;100.00;95557.97;5120855;27;20047;-73
2021/10/18 03:22:36;;;;;;;27.27;13.05;;;;;;;10.61;100.00;95558.50;5128235;27;20062;-74
2021/10/18 03:25:06;;;;;;;24.35;13.75;;;;;;;10.70;100.00;95571.03;5127282;27;20122;-74
2021/10/18 03:27:33;;;;;;;29.20;13.27;;;;;;;10.80;100.00;95570.56;5121419;27;20043;-74
2021/10/18 03:30:00;;;;;;;24.02;12.70;;;;;;;10.87;100.00;95562.69;5120529;27;20035;-74
2021/10/18 03:32:27;;;;;;;28.02;14.75;;;;;;;10.87;100.00;95568.69;5124965;27;20557;-74
2021/10/18 03:34:54;;;;;;;23.13;12.23;;;;;;;10.76;100.00;95568.59;5126669;27;20725;-74
2021/10/18 03:37:21;;;;;;;26.45;13.38;;;;;;;10.78;100.00;95569.97;5122713;27;20668;-74
2021/10/18 03:39:48;;;;;;;24.88;12.73;;;;;;;10.83;100.00;95572.75;5125144;27;20540;-74
2021/10/18 03:42:15;;;;;;;23.77;12.50;;;;;;;10.72;100.00;95568.22;5125742;27;20104;-74
2021/10/18 03:44:41;;;;;;;28.70;13.32;;;;;;;10.62;100.00;95573.91;5127395;27;20042;-74
2021/10/18 03:47:08;;;;;;;26.73;13.80;;;;;;;10.60;100.00;95565.50;5122593;27;20047;-74
2021/10/18 03:49:35;;;;;;;26.80;13.20;;;;;;;10.61;100.00;95571.53;5123488;27;20048;-74
2021/10/18 03:52:02;;;;;;;23.00;12.27;;;;;;;10.69;100.00;95573.84;5122779;27;20035;-74
2021/10/18 03:54:30;;;;;;;26.13;12.90;;;;;;;10.76;100.00;95574.59;5122705;27;20040;-73
2021/10/18 03:56:57;;;;;;;23.10;12.32;;;;;;;10.70;100.00;95570.25;5128631;27;20042;-73
2021/10/18 03:59:24;;;;;;;30.25;13.05;;;;;;;10.60;100.00;95575.13;5131039;27;20047;-74
2021/10/18 04:01:54;;;;;;;23.48;12.40;;;;;;;10.69;100.00;95576.47;5113713;27;20091;-73
2021/10/18 04:04:20;;;;;;;26.52;13.65;;;;;;;10.61;100.00;95571.53;5111814;27;20524;-74
2021/10/18 04:06:47;;;;;;;21.33;12.57;;;;;;;10.53;100.00;95575.19;5110975;27;20058;-74
2021/10/18 04:09:14;;;;;;;33.85;16.02;;;;;;;10.49;100.00;95572.19;5109324;27;20895;-73
2021/10/18 04:11:41;;;;;;;29.83;14.18;;;;;;;10.52;100.00;95569.19;5110743;27;21830;-74
2021/10/18 04:14:08;;;;;;;34.63;17.48;;;;;;;10.61;100.00;95580.16;5111931;27;20489;-74
2021/10/18 04:16:35;;;;;;;28.63;14.27;;;;;;;10.67;100.00;95581.88;5108311;27;20039;-73
2021/10/18 04:19:02;;;;;;;24.08;13.68;;;;;;;10.68;100.00;95577.50;5106829;27;20031;-74
2021/10/18 04:21:29;;;;;;;28.48;13.18;;;;;;;10.57;100.00;95575.56;5109660;27;20095;-74
2021/10/18 04:23:56;;;;;;;37.40;17.13;;;;;;;10.54;100.00;95584.59;5109062;27;20040;-74
2021/10/18 04:26:23;;;;;;;43.67;17.63;;;;;;;10.59;100.00;95578.75;5110752;27;20047;-74
2021/10/18 04:28:50;;;;;;;47.75;17.90;;;;;;;10.46;100.00;95580.47;5105689;27;20047;-74
2021/10/18 04:31:16;;;;;;;35.67;15.75;;;;;;;10.49;100.00;95585.22;5114396;27;20054;-74
2021/10/18 04:33:43;;;;;;;32.28;16.17;;;;;;;10.60;100.00;95580.34;5109076;27;20036;-74
2021/10/18 04:36:10;;;;;;;30.58;14.82;;;;;;;10.51;100.00;95562.41;5115761;27;20043;-74
2021/10/18 04:38:37;;;;;;;26.02;12.98;;;;;;;10.63;100.00;95578.13;5112832;27;20039;-74
2021/10/18 04:41:03;;;;;;;26.98;13.15;;;;;;;10.39;100.00;95577.09;5091939;27;20063;-74
2021/10/18 04:43:30;;;;;;;32.72;15.07;;;;;;;10.41;100.00;95580.28;5110199;27;20051;-74
2021/10/18 04:45:57;;;;;;;31.98;15.48;;;;;;;10.47;100.00;95578.66;5110588;27;20051;-73
2021/10/18 04:48:24;;;;;;;26.27;12.77;;;;;;;10.57;100.00;95593.78;5092993;27;20528;-74
2021/10/18 04:50:50;;;;;;;30.23;14.40;;;;;;;10.64;100.00;95581.50;5102917;27;20508;-74
2021/10/18 04:53:18;;;;;;;27.02;13.73;;;;;;;10.57;100.00;95580.75;5106449;27;20046;-74
2021/10/18 04:55:45;;;;;;;26.58;14.48;;;;;;;10.48;100.00;95583.66;5109525;27;20062;-74
2021/10/18 04:58:12;;;;;;;30.70;14.45;;;;;;;10.50;100.00;95586.84;5106765;27;20516;-74
2021/10/18 05:00:44;;;;;;;25.08;15.18;;;;;;;10.60;100.00;95585.56;5107023;27;20530;-72
2021/10/18 05:03:11;;;;;;;31.15;15.90;;;;;;;10.61;100.00;95600.19;5113507;27;20039;-72
2021/10/18 05:05:39;;;;;;;33.78;15.45;;;;;;;10.66;100.00;95595.13;5117966;27;20042;-72
2021/10/18 05:08:09;;;;;;;29.00;15.52;;;;;;;10.64;100.00;95602.34;5111859;27;20052;-72
2021/10/18 05:10:38;;;;;;;32.40;15.50;;;;;;;10.64;100.00;95602.34;5117902;27;20488;-73
2021/10/18 05:13:07;;;;;;;29.70;15.50;;;;;;;10.67;100.00;95596.72;5115230;27;20044;-72
2021/10/18 05:15:34;;;;;;;28.85;16.75;;;;;;;10.71;100.00;95603.09;5107387;27;20039;-73
2021/10/18 05:18:01;;;;;;;27.73;16.52;;;;;;;10.56;100.00;95600.03;5100701;27;20459;-74
2021/10/18 05:20:29;;;;;;;31.63;14.75;;;;;;;10.44;100.00;95603.31;5105107;27;20031;-74
2021/10/18 05:22:56;;;;;;;29.58;15.95;;;;;;;10.58;100.00;95613.63;5102521;27;20039;-73
2021/10/18 05:25:24;;;;;;;27.35;15.15;;;;;;;10.64;100.00;95612.78;5109552;27;20092;-74
2021/10/18 05:27:50;;;;;;;35.53;17.48;;;;;;;10.62;100.00;95609.59;5088143;28;20050;-72
2021/10/18 05:30:21;;;;;;;35.33;15.57;;;;;;;10.44;100.00;95613.72;5111824;27;20527;-73
2021/10/18 05:32:48;;;;;;;34.00;16.65;;;;;;;10.40;100.00;95615.13;5107708;27;20044;-72
2021/10/18 05:35:15;;;;;;;38.65;17.75;;;;;;;10.45;100.00;95623.13;5108445;27;20439;-73
2021/10/18 05:37:43;;;;;;;41.70;19.52;;;;;;;10.46;100.00;95616.09;5112906;27;20475;-73
2021/10/18 05:40:11;;;;;;;38.80;19.27;;;;;;;10.39;100.00;95625.75;5111373;27;20031;-72
2021/10/18 05:42:38;;;;;;;62.15;25.48;;;;;;;10.42;100.00;95630.56;5106347;27;20046;-73
2021/10/18 05:45:08;;;;;;;40.65;19.48;;;;;;;10.47;100.00;95628.91;5111441;27;20123;-73
2021/10/18 05:47:35;;;;;;;33.38;16.45;;;;;;;10.47;100.00;95639.34;5103660;27;20113;-73
2021/10/18 05:50:03;;;;;;;39.35;18.23;;;;;;;10.45;100.00;95628.34;5106378;27;20063;-73
2021/10/18 05:52:29;;;;;;;27.55;15.45;;;;;;;10.48;100.00;95640.16;5109167;27;20049;-73
2021/10/18 05:54:57;;;;;;;31.30;15.38;;;;;;;10.45;100.00;95641.34;5111971;27;20051;-72
2021/10/18 05:57:24;;;;;;;31.05;14.50;;;;;;;10.54;100.00;95643.72;5111656;27;20044;-72
2021/10/18 05:59:51;;;;;;;31.50;16.63;;;;;;;10.55;100.00;95645.31;5095560;27;20027;-73
2021/10/18 06:02:17;;;;;;;30.83;15.00;;;;;;;10.49;100.00;95645.13;5115143;27;20058;-73
2021/10/18 06:04:46;;;;;;;35.05;18.35;;;;;;;10.58;100.00;95655.31;5113232;27;20054;-73
2021/10/18 06:07:13;;;;;;;32.65;17.05;;;;;;;10.65;100.00;95656.06;5111718;27;20031;-73
2021/10/18 06:09:40;;;;;;;26.95;14.50;;;;;;;10.70;100.00;95658.84;5108377;27;20032;-73
2021/10/18 06:12:06;;;;;;;34.83;17.98;;;;;;;10.74;100.00;95660.00;5110725;27;20120;-73
2021/10/18 06:14:33;;;;;;;40.53;21.10;;;;;;;10.76;100.00;95663.19;5092820;27;20051;-73
2021/10/18 06:17:00;;;;;;;30.95;15.93;;;;;;;10.76;100.00;95657.97;5117312;27;20047;-71
2021/10/18 06:19:27;;;;;;;24.65;13.43;;;;;;;10.79;100.00;95662.78;5111028;27;20047;-73
2021/10/18 06:21:54;;;;;;;25.50;12.57;;;;;;;10.83;100.00;95669.16;5119702;27;20436;-73
2021/10/18 06:24:20;;;;;;;30.00;14.07;;;;;;;10.88;100.00;95669.31;5097058;27;20039;-70
2021/10/18 06:26:47;;;;;;;25.42;14.80;;;;;;;10.90;100.00;95669.91;5115521;27;20509;-70
2021/10/18 06:29:14;;;;;;;28.42;14.40;;;;;;;10.95;100.00;95677.09;5112394;27;20039;-70
2021/10/18 06:31:41;;;;;;;27.25;14.88;;;;;;;10.98;100.00;95675.88;5109960;27;20472;-70
2021/10/18 06:34:08;;;;;;;29.70;15.50;;;;;;;10.93;100.00;95675.69;5109883;27;20470;-70
2021/10/18 06:36:35;;;;;;;34.08;14.57;;;;;;;10.98;100.00;95675.88;5110792;27;20035;-70
2021/10/18 06:39:02;;;;;;;32.17;14.60;;;;;;;11.04;100.00;95688.06;5108885;28;20043;-70
2021/10/18 06:41:29;;;;;;;22.83;13.30;;;;;;;11.01;100.00;95680.66;5114243;28;20605;-70
2021/10/18 06:43:56;;;;;;;28.92;14.55;;;;;;;11.09;100.00;95688.22;5090485;28;20051;-70
2021/10/18 06:46:22;;;;;;;27.05;14.13;;;;;;;11.14;100.00;95696.19;5110350;28;20046;-70
2021/10/18 06:48:49;;;;;;;24.88;13.00;;;;;;;11.07;100.00;95690.22;5110471;28;20058;-71
2021/10/18 06:51:16;;;;;;;27.58;12.45;;;;;;;11.16;100.00;95698.59;5108233;28;20541;-71
2021/10/18 06:53:43;;;;;;;28.38;15.18;;;;;;;11.19;100.00;95698.97;5112664;28;20548;-70
2021/10/18 06:56:10;;;;;;;34.88;14.98;;;;;;;11.18;100.00;95702.59;5111673;28;20039;-71
2021/10/18 06:58:37;;;;;;;27.27;13.45;;;;;;;11.02;100.00;95697.88;5110580;28;20040;-71
2021/10/18 07:01:04;;;;;;;24.80;13.55;;;;;;;11.16;100.00;95709.81;5113841;28;20492;-70
2021/10/18 07:03:31;;;;;;;27.05;13.63;;;;;;;11.25;100.00;95707.75;5114653;28;20047;-70
2021/10/18 07:06:00;;;;;;;32.80;14.43;;;;;;;11.21;100.00;95696.94;5111700;28;20048;-70
2021/10/18 07:08:26;;;;;;;26.73;13.82;;;;;;;11.34;100.00;95711.66;5112135;28;20046;-70
2021/10/18 07:10:53;;;;;;;28.60;15.27;;;;;;;11.38;100.00;95712.03;5110365;28;20035;-70
2021/10/18 07:13:20;;;;;;;31.33;16.30;;;;;;;11.36;100.00;95719.28;5108141;28;20101;-70
2021/10/18 07:15:47;;;;;;;26.52;14.65;;;;;;;11.35;100.00;95705.47;5094420;28;20451;-70
2021/10/18 07:18:14;;;;;;;34.15;15.65;;;;;;;11.42;100.00;95713.22;5113450;28;20047;-70
2021/10/18 07:20:41;;;;;;;29.90;15.98;;;;;;;11.38;100.00;95717.25;5114066;28;20035;-69
2021/10/18 07:23:13;;;;;;;33.20;15.88;;;;;;;11.45;100.00;95718.00;5108022;28;20043;-71
2021/10/18 07:25:42;;;;;;;27.10;14.80;;;;;;;11.46;100.00;95714.41;5111386;28;20048;-71
2021/10/18 07:28:09;;;;;;;29.50;15.25;;;;;;;11.55;100.00;95718.31;5090573;28;20459;-70
2021/10/18 07:30:38;;;;;;;31.33;14.27;;;;;;;11.57;100.00;95716.28;5103292;28;20036;-72
2021/10/18 07:33:05;;;;;;;29.95;15.70;;;;;;;11.53;100.00;95709.91;5105123;28;20145;-73
2021/10/18 07:35:34;;;;;;;28.30;14.18;;;;;;;11.58;100.00;95717.91;5109791;27;20069;-71
2021/10/18 07:38:01;;;;;;;33.83;15.70;;;;;;;11.67;100.00;95721.03;5108161;27;20064;-72
2021/10/18 07:40:28;;;;;;;42.97;20.88;;;;;;;11.81;100.00;95721.69;5088482;28;20282;-71
2021/10/18 07:42:55;;;;;;;37.97;19.40;;;;;;;11.95;100.00;95723.16;5111048;27;20051;-72
2021/10/18 07:45:22;;;;;;;34.38;17.88;;;;;;;12.04;100.00;95726.28;5115085;27;20036;-72
2021/10/18 07:47:49;;;;;;;38.05;19.10;;;;;;;12.12;100.00;95725.19;5111043;27;20055;-71
2021/10/18 07:50:16;;;;;;;33.65;16.92;;;;;;;11.99;100.00;95729.56;5093582;27;20058;-72
2021/10/18 07:52:44;;;;;;;35.60;15.98;;;;;;;12.11;100.00;95726.22;5114712;27;20351;-71
2021/10/18 07:55:20;;;;;;;34.25;18.33;;;;;;;12.12;100.00;95727.81;5108879;27;20506;-72
2021/10/18 07:57:49;;;;;;;34.28;16.77;;;;;;;12.24;100.00;95731.28;5108079;27;20063;-72
2021/10/18 08:00:18;;;;;;;38.92;18.75;;;;;;;12.38;100.00;95732.72;5113798;27;20039;-72
2021/10/18 08:02:45;;;;;;;37.08;17.15;;;;;;;12.51;99.77;95728.34;5110809;27;20047;-72
2021/10/18 08:05:16;;;;;;;30.80;17.08;;;;;;;12.69;98.34;95730.94;5113937;27;20051;-72
2021/10/18 08:07:50;;;;;;;28.35;16.27;;;;;;;12.85;96.94;95731.34;5113462;27;20071;-72
2021/10/18 08:10:23;;;;;;;43.13;19.38;;;;;;;12.82;96.15;95728.16;5110789;27;20036;-72
2021/10/18 08:12:59;;;;;;;27.90;14.88;;;;;;;12.85;95.47;95721.66;5109294;27;20508;-72
2021/10/18 08:15:30;;;;;;;30.85;16.60;;;;;;;12.91;95.40;95720.78;5112345;27;20050;-72
2021/10/18 08:17:58;;;;;;;27.85;13.68;;;;;;;13.00;95.17;95718.66;5112455;27;20125;-72
2021/10/18 08:20:24;;;;;;;31.05;15.82;;;;;;;13.12;95.60;95711.59;5110450;27;20147;-72
2021/10/18 08:22:51;;;;;;;28.08;15.80;;;;;;;13.17;94.04;95714.34;5112979;27;20842;-71
2021/10/18 08:25:19;;;;;;;27.55;14.27;;;;;;;13.18;94.64;95697.66;5109859;27;20445;-71
2021/10/18 08:27:46;;;;;;;27.85;14.95;;;;;;;13.31;95.98;95709.75;5107375;27;20047;-72
2021/10/18 08:30:14;;;;;;;28.27;14.73;;;;;;;13.35;93.52;95712.69;5115202;27;20070;-72
2021/10/18 08:32:41;;;;;;;26.77;13.18;;;;;;;13.38;92.73;95709.66;5115784;27;20557;-71
2021/10/18 08:35:10;;;;;;;27.63;14.52;;;;;;;13.48;92.07;95707.25;5090213;28;20054;-72
2021/10/18 08:40:28;;;;;;;23.48;13.35;;;;;;;13.84;90.69;95702.78;5118517;27;20525;-72
2021/10/18 08:45:22;;;;;;;20.60;11.65;;;;;;;14.17;88.82;95709.25;5115069;27;20054;-72
2021/10/18 08:47:49;;;;;;;23.23;12.43;;;;;;;14.20;88.42;95711.38;5110038;27;20435;-72
2021/10/18 08:50:16;;;;;;;19.05;11.05;;;;;;;14.09;87.99;95709.59;5105586;27;20039;-71
2021/10/18 08:52:43;;;;;;;18.33;10.82;;;;;;;14.02;87.99;95714.16;5111282;27;20071;-72
2021/10/18 08:55:10;;;;;;;29.80;14.35;;;;;;;14.09;87.45;95704.34;5114253;27;20051;-72
2021/10/18 08:57:38;;;;;;;26.98;14.88;;;;;;;14.10;88.38;95711.19;5109717;27;20503;-72
2021/10/18 09:00:06;;;;;;;24.73;13.23;;;;;;;14.17;88.43;95711.88;5109019;27;20051;-73
2021/10/18 09:02:39;;;;;;;25.40;14.20;;;;;;;14.25;87.44;95705.47;5110364;27;20054;-72
2021/10/18 09:05:08;;;;;;;17.88;10.40;;;;;;;14.28;86.00;95712.84;5112462;27;20138;-73
2021/10/18 09:07:37;;;;;;;22.05;11.73;;;;;;;14.25;86.37;95713.31;5112142;27;20042;-73
2021/10/18 09:10:12;;;;;;;16.77;9.50;;;;;;;14.30;85.58;95711.59;5089621;27;20036;-73
2021/10/18 09:12:40;;;;;;;17.05;10.40;;;;;;;14.26;83.93;95702.59;5114964;27;20047;-73
2021/10/18 09:15:20;;;;;;;17.75;9.02;;;;;;;14.34;84.57;95712.69;5109493;27;20044;-73
2021/10/18 09:17:59;;;;;;;16.70;9.13;;;;;;;14.33;83.13;95716.38;5093191;27;20047;-73
2021/10/18 09:20:32;;;;;;;22.67;11.55;;;;;;;14.33;85.69;95716.38;5107207;27;20035;-72
2021/10/18 09:23:23;;;;;;;19.30;10.02;;;;;;;14.43;85.24;95717.59;5115569;27;20046;-73
2021/10/18 09:25:51;;;;;;;18.10;9.25;;;;;;;14.27;85.87;95717.28;5112194;27;20031;-73
2021/10/18 09:28:24;;;;;;;15.23;8.98;;;;;;;14.23;85.31;95705.69;5110845;27;20047;-73
2021/10/18 09:30:51;;;;;;;14.15;8.07;;;;;;;14.32;84.18;95704.28;5112093;27;20040;-72
2021/10/18 09:33:23;;;;;;;11.32;6.13;;;;;;;14.38;82.23;95712.25;5116946;27;20047;-73
2021/10/18 09:35:52;;;;;;;13.20;6.55;;;;;;;14.46;81.07;95714.50;5092598;27;20134;-73
2021/10/18 09:38:21;;;;;;;13.88;7.18;;;;;;;14.25;81.51;95715.94;5101248;27;20088;-73
2021/10/18 09:40:50;;;;;;;13.27;6.82;;;;;;;14.26;82.24;95713.09;5104587;27;20055;-73
2021/10/18 09:43:29;;;;;;;12.35;7.45;;;;;;;14.35;81.78;95713.53;5107908;27;20047;-72
2021/10/18 10:53:28;;;;;;;11.48;6.72;;;;;;;14.35;78.61;95692.56;5124479;27;20051;-73
2021/10/18 10:56:24;;;;;;;11.32;6.68;;;;;;;14.37;79.16;95694.91;5124693;27;20055;-73
2021/10/18 10:59:00;;;;;;;13.75;7.82;;;;;;;14.37;79.12;95685.25;5124347;27;20057;-73
2021/10/18 11:01:38;;;;;;;14.70;8.63;;;;;;;14.41;79.59;95690.81;5109166;27;20078;-74
2021/10/18 11:04:34;;;;;;;15.73;7.82;;;;;;;14.39;79.65;95682.41;5128526;27;20059;-74
2021/10/18 11:07:04;;;;;;;14.18;7.18;;;;;;;14.29;79.67;95689.03;5129274;27;20043;-72
2021/10/18 11:09:40;;;;;;;15.05;7.75;;;;;;;14.27;79.78;95683.22;5130929;27;20054;-74
2021/10/18 11:12:28;;;;;;;13.55;7.32;;;;;;;14.19;79.81;95683.59;5126020;27;20035;-73
2021/10/18 11:15:13;;;;;;;12.55;6.75;;;;;;;14.24;79.74;95681.09;5122256;27;20040;-71
2021/10/18 11:17:50;;;;;;;14.93;7.78;;;;;;;14.44;79.05;95674.63;5125428;27;20036;-71
2021/10/18 11:20:23;;;;;;;20.38;10.05;;;;;;;14.52;79.14;95677.66;5121601;27;20402;-72
2021/10/18 11:22:55;;;;;;;14.65;7.35;;;;;;;14.55;79.16;95665.94;5124491;27;20039;-72
2021/10/18 11:25:26;;;;;;;23.92;14.40;;;;;;;14.89;78.75;95665.97;5128090;27;20512;-71
2021/10/18 11:27:59;;;;;;;17.55;10.00;;;;;;;15.61;74.76;95667.06;5120752;27;20562;-70
2021/10/18 11:30:30;;;;;;;14.02;7.82;;;;;;;16.08;73.38;95666.66;5124441;27;20497;-70
2021/10/18 11:33:06;;;;;;;12.02;7.00;;;;;;;16.30;71.16;95668.50;5125185;27;20042;-71
2021/10/18 11:35:34;;;;;;;11.90;6.70;;;;;;;16.43;70.54;95668.09;5119155;27;20040;-71
2021/10/18 11:38:04;;;;;;;11.07;6.93;;;;;;;16.28;70.26;95660.03;5120299;27;20059;-71
2021/10/18 11:40:37;;;;;;;14.02;7.28;;;;;;;16.08;71.51;95666.66;5116736;27;20132;-71
2021/10/18 11:43:06;;;;;;;12.27;6.32;;;;;;;16.21;71.68;95674.16;5122833;27;20035;-71
2021/10/18 11:45:37;;;;;;;11.40;5.90;;;;;;;16.24;69.08;95665.81;5094370;28;20036;-71
2021/10/18 11:48:12;;;;;;;11.85;6.03;;;;;;;16.14;70.71;95660.41;5104017;27;20044;-71
2021/10/18 11:50:44;;;;;;;16.48;6.78;;;;;;;16.15;70.90;95651.50;5106669;27;20059;-71
2021/10/18 11:53:16;;;;;;;12.43;6.70;;;;;;;16.23;70.40;95658.94;5102134;27;20066;-71
2021/10/18 11:55:49;;;;;;;14.50;6.45;;;;;;;16.41;68.46;95657.03;5109181;27;20039;-71
2021/10/18 11:58:21;;;;;;;11.30;6.18;;;;;;;16.43;68.30;95663.63;5106394;27;20047;-71
2021/10/18 12:00:58;;;;;;;8.85;5.40;;;;;;;16.29;68.96;95661.63;5101788;27;21612;-71
2021/10/18 12:03:25;;;;;;;11.93;6.82;;;;;;;16.18;69.35;95652.84;5106573;27;20043;-71
2021/10/18 12:05:54;;;;;;;15.20;6.78;;;;;;;16.06;69.51;95658.22;5101277;27;20035;-71
2021/10/18 12:08:29;;;;;;;9.55;5.72;;;;;;;15.82;69.61;95641.91;5102989;27;20098;-71
2021/10/18 12:10:57;;;;;;;11.93;5.95;;;;;;;16.00;70.43;95653.94;5086382;28;20043;-71
2021/10/18 12:13:34;;;;;;;10.13;6.18;;;;;;;16.09;69.83;95647.22;5106651;27;20070;-71
2021/10/18 12:16:08;;;;;;;9.23;4.68;;;;;;;16.09;68.33;95643.81;5090910;27;20046;-71
2021/10/18 12:19:00;;;;;;;8.02;5.03;;;;;;;16.37;67.79;95648.06;5106074;27;20044;-71
2021/10/18 12:21:33;;;;;;;8.40;5.03;;;;;;;16.29;68.50;95645.84;5106667;27;20038;-71
2021/10/18 12:24:13;;;;;;;10.30;5.13;;;;;;;16.24;68.89;95644.78;5113356;27;20074;-71
2021/10/18 12:26:52;;;;;;;9.30;5.18;;;;;;;16.24;68.54;95636.88;5105571;27;20047;-71
2021/10/18 12:29:24;;;;;;;11.32;4.85;;;;;;;16.12;68.32;95645.94;5088596;27;20047;-71
2021/10/18 12:31:58;;;;;;;11.15;6.70;;;;;;;15.89;70.09;95641.72;5100496;27;20051;-71
2021/10/18 12:34:27;;;;;;;11.95;6.45;;;;;;;15.90;70.29;95645.94;5111836;27;20499;-71
2021/10/18 12:37:07;;;;;;;11.45;5.60;;;;;;;16.01;69.61;95647.66;5103688;27;20385;-71
2021/10/18 12:42:33;;;;;;;9.35;5.45;;;;;;;16.05;68.68;95641.66;5111491;27;20598;-70
2021/10/18 12:45:05;;;;;;;11.25;6.10;;;;;;;15.93;69.83;95638.34;5105074;27;20052;-69
2021/10/18 12:47:34;;;;;;;9.75;6.35;;;;;;;15.88;70.65;95640.13;5108444;27;20485;-71
2021/10/18 12:50:01;;;;;;;8.73;5.05;;;;;;;15.88;69.54;95642.75;5111037;27;20043;-71
2021/10/18 12:52:42;;;;;;;8.95;5.18;;;;;;;15.79;70.05;95637.13;5105782;27;20043;-70
2021/10/18 12:55:21;;;;;;;9.05;5.13;;;;;;;15.94;69.36;95623.41;5107872;27;20039;-71
2021/10/18 12:58:02;;;;;;;11.27;5.28;;;;;;;16.62;66.21;95648.31;5109945;27;20050;-71
2021/10/18 13:00:30;;;;;;;10.05;5.20;;;;;;;16.94;65.74;95637.06;5112938;27;20040;-71
2021/10/18 13:03:23;;;;;;;7.57;4.57;;;;;;;17.46;63.81;95632.13;5113738;27;20048;-71
2021/10/18 13:05:54;;;;;;;11.30;5.40;;;;;;;17.87;62.45;95637.63;5114013;27;20035;-71
2021/10/18 13:08:23;;;;;;;7.32;4.25;;;;;;;18.30;60.20;95640.97;5109144;27;20043;-70
2021/10/18 13:10:53;;;;;;;7.85;4.53;;;;;;;18.51;57.93;95645.22;5103278;27;20126;-70
2021/10/18 13:13:22;;;;;;;9.32;5.95;;;;;;;18.61;59.16;95631.25;5111979;27;20036;-69
2021/10/18 13:15:52;;;;;;;8.45;4.80;;;;;;;19.00;57.11;95637.94;5110087;27;20056;-70
2021/10/18 13:18:21;;;;;;;11.38;6.38;;;;;;;18.82;58.27;95642.66;5108004;27;20119;-70
2021/10/18 13:20:49;;;;;;;7.30;4.50;;;;;;;19.15;56.11;95635.25;5105709;27;20043;-71
2021/10/18 13:23:16;;;;;;;6.28;3.97;;;;;;;18.94;56.24;95645.03;5090288;28;20051;-70
2021/10/18 13:25:45;;;;;;;8.02;4.70;;;;;;;19.08;56.02;95638.16;5113381;27;20698;-71
2021/10/18 13:28:13;;;;;;;10.30;6.05;;;;;;;18.86;56.21;95651.63;5095082;27;20046;-71
2021/10/18 13:30:41;;;;;;;8.07;3.72;;;;;;;18.22;58.40;95636.19;5119219;27;20176;-71
2021/10/18 13:33:08;;;;;;;6.47;3.63;;;;;;;17.92;59.96;95645.56;5104603;27;20481;-70
2021/10/18 13:35:36;;;;;;;6.60;4.18;;;;;;;18.20;58.71;95651.47;5109032;27;20550;-71
2021/10/18 13:38:05;;;;;;;7.50;4.03;;;;;;;18.46;58.04;95649.72;5108130;27;20039;-71